Time;durP1;ratioP1;P1;durP2;ratioP2;P2;SDS_P1;SDS_P2;PMS_P1;PMS_P2;Temp;Humidity;BMP_temperature;BMP_pressure;BME280_temperature;BME280_humidity;BME280_pressure;Samples;Min_cycle;Max_cycle;Signal;HPM_P1;HPM_P2
2022/09/27 00:00:11;;;;;;;;;;;;;;;9.44;100.00;99647.91;5047434;28;20366;-58
2022/09/27 00:02:36;;;;;;;;;;;;;;;9.45;100.00;99646.09;5046551;28;19917;-58
2022/09/27 00:05:02;;;;;;;;;;;;;;;9.47;100.00;99652.84;5049461;28;19952;-58
2022/09/27 00:07:27;;;;;;;;;;;;;;;9.46;100.00;99656.50;5045092;28;19917;-58
2022/09/27 00:09:52;;;;;;;;;;;;;;;9.47;100.00;99654.66;5047289;28;19921;-58
2022/09/27 00:12:17;;;;;;;;;;;;;;;9.49;100.00;99669.34;5042068;28;20555;-58
2022/09/27 00:14:42;;;;;;;;;;;;;;;9.49;100.00;99664.06;5042910;28;19916;-58
2022/09/27 00:17:08;;;;;;;;;;;;;;;9.50;100.00;99673.66;4985065;28;1721030;-58
2022/09/27 00:19:34;;;;;;;;;;;;;;;9.52;100.00;99684.88;5046804;28;20128;-57
2022/09/27 00:22:00;;;;;;;;;;;;;;;9.51;100.00;99677.13;5040852;28;19920;-58
2022/09/27 00:24:25;;;;;;;;;;;;;;;9.59;100.00;99682.28;5048524;28;19921;-58
2022/09/27 00:26:50;;;;;;;;;;;;;;;9.57;100.00;99676.38;5049258;28;19913;-58
2022/09/27 00:29:17;;;;;;;;;;;;;;;9.61;100.00;99670.50;5049079;28;19924;-58
2022/09/27 00:31:42;;;;;;;;;;;;;;;9.55;100.00;99668.63;5042700;28;19967;-59
2022/09/27 00:34:12;;;;;;;;;;;;;;;9.52;100.00;99676.91;5047758;28;19920;-58
2022/09/27 00:36:37;;;;;;;;;;;;;;;9.51;99.85;99675.28;5041737;28;19996;-58
2022/09/27 00:39:03;;;;;;;;;;;;;;;9.50;99.79;99681.59;5045105;28;20008;-58
2022/09/27 00:41:32;;;;;;;;;;;;;;;9.50;99.78;99688.72;5045048;28;19944;-58
2022/09/27 00:44:00;;;;;;;;;;;;;;;9.48;99.98;99683.63;5045408;28;19921;-58
2022/09/27 00:46:38;;;;;;;;;;;;;;;9.50;99.89;99684.25;5049032;28;19920;-59
2022/09/27 00:49:10;;;;;;;;;;;;;;;9.51;99.79;99685.06;5044423;28;19916;-58
2022/09/27 00:51:37;;;;;;;;;;;;;;;9.50;99.97;99689.53;5047035;28;20834;-58
2022/09/27 00:54:03;;;;;;;;;;;;;;;9.50;99.48;99694.03;5047992;28;20322;-58
2022/09/27 00:56:30;;;;;;;;;;;;;;;9.51;99.53;99696.47;5050000;28;19920;-58
2022/09/27 00:58:58;;;;;;;;;;;;;;;9.49;99.65;99695.84;5048933;28;19920;-58
2022/09/27 01:01:23;;;;;;;;;;;;;;;9.50;99.75;99705.44;5045503;28;20007;-58
2022/09/27 01:03:48;;;;;;;;;;;;;;;9.50;99.64;99694.84;5050620;28;20003;-58
2022/09/27 01:06:14;;;;;;;;;;;;;;;9.51;99.71;99696.47;5042939;28;19931;-58
2022/09/27 01:08:39;;;;;;;;;;;;;;;9.51;99.32;99699.13;5044027;28;20450;-58
2022/09/27 01:11:18;;;;;;;;;;;;;;;9.51;99.26;99691.19;5048563;28;19917;-58
2022/09/27 01:14:03;;;;;;;;;;;;;;;9.47;99.27;99684.63;5047860;28;19966;-58
2022/09/27 01:16:35;;;;;;;;;;;;;;;9.43;99.60;99688.69;5039055;28;20447;-58
2022/09/27 01:19:30;;;;;;;;;;;;;;;9.40;99.53;99693.53;5046872;28;20088;-58
2022/09/27 01:22:01;;;;;;;;;;;;;;;9.33;99.42;99682.91;5044778;28;19921;-58
2022/09/27 01:24:36;;;;;;;;;;;;;;;9.31;99.35;99690.22;5047965;28;20395;-58
2022/09/27 01:27:04;;;;;;;;;;;;;;;9.26;99.66;99688.16;5049584;28;19921;-58
2022/09/27 01:29:44;;;;;;;;;;;;;;;9.23;99.38;99696.44;5045912;28;19940;-59
2022/09/27 01:32:12;;;;;;;;;;;;;;;9.18;99.40;99695.38;5048455;28;19940;-59
2022/09/27 01:34:46;;;;;;;;;;;;;;;9.13;99.47;99690.66;5050480;28;19967;-59
2022/09/27 01:37:19;;;;;;;;;;;;;;;9.11;99.93;99694.50;5046706;28;19925;-58
2022/09/27 01:39:50;;;;;;;;;;;;;;;9.08;99.83;99703.66;5050915;28;20347;-59
2022/09/27 01:42:25;;;;;;;;;;;;;;;9.03;99.84;99707.88;5049228;28;20540;-59
2022/09/27 01:45:01;;;;;;;;;;;;;;;8.97;99.95;99704.97;5046464;28;19927;-59
2022/09/27 01:47:30;;;;;;;;;;;;;;;8.94;100.00;99707.97;5049474;28;20062;-58
2022/09/27 01:50:00;;;;;;;;;;;;;;;8.89;100.00;99710.38;5050265;28;19927;-58
2022/09/27 01:52:34;;;;;;;;;;;;;;;8.95;100.00;99717.56;5047848;28;19920;-59
2022/09/27 01:55:01;;;;;;;;;;;;;;;8.94;99.81;99715.91;5048598;28;20412;-59
2022/09/27 01:57:31;;;;;;;;;;;;;;;8.97;100.00;99718.22;5044908;28;19917;-58
2022/09/27 02:00:00;;;;;;;;;;;;;;;8.97;99.77;99710.28;5042518;28;19920;-58
2022/09/27 02:02:27;;;;;;;;;;;;;;;9.02;99.79;99714.19;5044424;28;19927;-59
2022/09/27 02:04:55;;;;;;;;;;;;;;;8.95;99.82;99693.72;5047683;28;19924;-58
2022/09/27 02:07:23;;;;;;;;;;;;;;;8.94;99.73;99701.84;5038759;28;19917;-58
2022/09/27 02:09:52;;;;;;;;;;;;;;;8.98;99.74;99705.78;5050240;28;19931;-58
2022/09/27 02:12:22;;;;;;;;;;;;;;;8.95;99.78;99700.84;5046483;28;19951;-58
2022/09/27 02:15:10;;;;;;;;;;;;;;;8.88;99.34;99706.09;5043818;28;20278;-58
2022/09/27 02:17:43;;;;;;;;;;;;;;;8.83;99.14;99707.66;5033567;28;20381;-58
2022/09/27 02:20:16;;;;;;;;;;;;;;;8.78;99.48;99704.75;5037825;28;19967;-59
2022/09/27 02:22:46;;;;;;;;;;;;;;;8.71;99.29;99702.03;5040861;28;19917;-58
2022/09/27 02:25:17;;;;;;;;;;;;;;;8.68;98.94;99711.19;5046996;28;19921;-58
2022/09/27 02:27:45;;;;;;;;;;;;;;;8.70;98.83;99713.63;5045955;28;19925;-58
2022/09/27 02:30:11;;;;;;;;;;;;;;;8.71;98.69;99707.34;5050204;28;19921;-58
2022/09/27 02:32:38;;;;;;;;;;;;;;;8.68;98.21;99711.19;5045557;28;19921;-59
2022/09/27 02:35:06;;;;;;;;;;;;;;;8.62;98.35;99714.53;5043819;28;19924;-58
2022/09/27 02:37:31;;;;;;;;;;;;;;;8.59;98.11;99722.84;5046458;28;19921;-58
2022/09/27 02:39:57;;;;;;;;;;;;;;;8.56;97.89;99722.41;5049611;28;19966;-58
2022/09/27 02:42:22;;;;;;;;;;;;;;;8.52;97.95;99715.84;5050759;28;19917;-58
2022/09/27 02:44:47;;;;;;;;;;;;;;;8.51;98.02;99719.50;5044579;28;19920;-58
2022/09/27 02:47:24;;;;;;;;;;;;;;;8.49;98.32;99713.56;5045031;28;20061;-58
2022/09/27 02:49:49;;;;;;;;;;;;;;;8.47;98.35;99710.28;5046426;28;20404;-58
2022/09/27 02:52:20;;;;;;;;;;;;;;;8.46;98.23;99711.28;5044318;28;19959;-58
2022/09/27 02:55:02;;;;;;;;;;;;;;;8.45;98.24;99718.41;5044547;28;20426;-58
2022/09/27 02:57:27;;;;;;;;;;;;;;;8.39;98.50;99708.56;5046549;28;20352;-58
2022/09/27 02:59:52;;;;;;;;;;;;;;;8.37;98.45;99716.66;5044721;28;20632;-58
2022/09/27 03:02:23;;;;;;;;;;;;;;;8.33;98.52;99703.97;5044582;28;19916;-58
2022/09/27 03:04:54;;;;;;;;;;;;;;;8.32;98.19;99713.72;5045831;28;20411;-58
2022/09/27 03:07:20;;;;;;;;;;;;;;;8.30;98.46;99705.16;5048505;28;19963;-58
2022/09/27 03:09:47;;;;;;;;;;;;;;;8.28;98.26;99709.81;5046797;28;19917;-58
2022/09/27 03:12:12;;;;;;;;;;;;;;;8.24;98.34;99703.25;5045238;28;20028;-58
2022/09/27 03:14:37;;;;;;;;;;;;;;;8.19;98.24;99695.03;5041605;28;19992;-58
2022/09/27 03:17:02;;;;;;;;;;;;;;;8.17;98.03;99699.69;5046401;28;19920;-59
2022/09/27 03:19:27;;;;;;;;;;;;;;;8.15;98.50;99703.53;5051855;28;20383;-58
2022/09/27 03:21:52;;;;;;;;;;;;;;;8.10;98.45;99705.91;5045945;28;19951;-59
2022/09/27 03:24:18;;;;;;;;;;;;;;;8.07;98.76;99709.72;5043420;28;20369;-58
2022/09/27 03:26:43;;;;;;;;;;;;;;;8.04;98.86;99708.25;5046120;28;19923;-58
2022/09/27 03:29:08;;;;;;;;;;;;;;;8.03;99.17;99713.72;5047077;28;20376;-58
2022/09/27 03:31:33;;;;;;;;;;;;;;;8.04;99.31;99716.19;5043306;28;19921;-58
2022/09/27 03:33:58;;;;;;;;;;;;;;;8.03;99.54;99726.94;5044489;28;20395;-58
2022/09/27 03:36:23;;;;;;;;;;;;;;;8.04;99.86;99729.41;5040146;28;19917;-59
2022/09/27 03:38:49;;;;;;;;;;;;;;;8.08;99.90;99737.78;5041973;28;19994;-59
2022/09/27 03:41:14;;;;;;;;;;;;;;;8.13;100.00;99743.38;5041675;28;19917;-58
2022/09/27 03:43:39;;;;;;;;;;;;;;;8.19;99.97;99758.50;5043421;28;19916;-58
2022/09/27 03:46:04;;;;;;;;;;;;;;;8.25;100.00;99778.94;5044465;28;20295;-58
2022/09/27 03:48:30;;;;;;;;;;;;;;;8.33;99.88;99780.66;5043593;28;19917;-58
2022/09/27 03:50:55;;;;;;;;;;;;;;;8.37;99.82;99790.72;5041230;28;19968;-59
2022/09/27 03:53:20;;;;;;;;;;;;;;;8.40;99.50;99780.81;5039299;28;19923;-58
2022/09/27 03:55:46;;;;;;;;;;;;;;;8.37;99.14;99785.44;5048008;28;20388;-57
2022/09/27 03:58:12;;;;;;;;;;;;;;;8.28;98.67;99794.44;5038751;28;19921;-58
2022/09/27 04:00:37;;;;;;;;;;;;;;;8.21;98.43;99776.84;5043158;28;19916;-58
2022/09/27 04:03:03;;;;;;;;;;;;;;;8.20;98.51;99781.31;5041226;28;19913;-58
2022/09/27 04:05:28;;;;;;;;;;;;;;;8.13;98.71;99772.47;5040319;28;20460;-58
2022/09/27 04:07:53;;;;;;;;;;;;;;;8.10;98.73;99756.16;5038680;28;20402;-59
2022/09/27 04:10:19;;;;;;;;;;;;;;;8.04;98.93;99757.66;5047632;28;19947;-58
2022/09/27 04:12:44;;;;;;;;;;;;;;;8.03;98.66;99756.03;5041974;28;19920;-58
2022/09/27 04:15:09;;;;;;;;;;;;;;;7.97;98.95;99749.66;5037417;28;19917;-58
2022/09/27 04:17:35;;;;;;;;;;;;;;;7.97;98.48;99736.44;5046181;28;19920;-57
2022/09/27 04:20:02;;;;;;;;;;;;;;;7.97;98.64;99736.44;5049552;28;19921;-58
2022/09/27 04:22:28;;;;;;;;;;;;;;;7.97;98.91;99732.97;5043266;28;19921;-58
2022/09/27 04:24:53;;;;;;;;;;;;;;;7.96;98.81;99732.16;5047512;28;19914;-58
2022/09/27 04:27:18;;;;;;;;;;;;;;;7.97;98.64;99738.25;5049498;28;19917;-58
2022/09/27 04:29:44;;;;;;;;;;;;;;;7.96;98.96;99740.06;5045024;28;19928;-59
2022/09/27 04:32:10;;;;;;;;;;;;;;;7.97;99.25;99733.78;5049949;28;20269;-58
2022/09/27 04:37:19;;;;;;;;;;;;;;;7.96;99.79;99732.16;5051444;28;19967;-58
2022/09/27 04:39:44;;;;;;;;;;;;;;;7.96;99.93;99732.16;5052139;28;19928;-58
2022/09/27 04:42:10;;;;;;;;;;;;;;;7.96;100.00;99734.78;5049655;28;20380;-57
2022/09/27 04:44:35;;;;;;;;;;;;;;;7.95;100.00;99745.53;5046702;28;20008;-58
2022/09/27 04:47:00;;;;;;;;;;;;;;;7.94;100.00;99741.25;5049576;28;19973;-58
2022/09/27 04:49:25;;;;;;;;;;;;;;;7.95;100.00;99751.66;5050868;28;19926;-58
2022/09/27 04:51:50;;;;;;;;;;;;;;;7.97;100.00;99757.56;5046930;28;19916;-58
2022/09/27 04:54:16;;;;;;;;;;;;;;;7.99;100.00;99758.22;5041962;28;20052;-59
2022/09/27 04:56:41;;;;;;;;;;;;;;;8.01;100.00;99776.53;5048320;28;20331;-58
2022/09/27 04:59:07;;;;;;;;;;;;;;;8.09;100.00;99784.38;5046035;28;20357;-59
2022/09/27 05:01:33;;;;;;;;;;;;;;;8.08;100.00;99799.44;5039391;28;19920;-58
2022/09/27 05:03:58;;;;;;;;;;;;;;;8.14;99.71;99803.19;5050565;28;19913;-59
2022/09/27 05:06:23;;;;;;;;;;;;;;;8.15;99.49;99806.66;5044882;28;20273;-58
2022/09/27 05:08:49;;;;;;;;;;;;;;;8.12;99.65;99802.56;5047910;28;19969;-58
2022/09/27 05:11:14;;;;;;;;;;;;;;;8.04;99.41;99792.88;5044146;28;20358;-58
2022/09/27 05:13:39;;;;;;;;;;;;;;;7.95;99.89;99777.25;5051268;28;19963;-58
2022/09/27 05:16:04;;;;;;;;;;;;;;;7.89;100.00;99765.59;5041739;28;19916;-57
2022/09/27 05:18:29;;;;;;;;;;;;;;;7.87;100.00;99764.13;5052739;28;19921;-57
2022/09/27 05:20:57;;;;;;;;;;;;;;;7.83;100.00;99753.09;5045896;28;19929;-58
2022/09/27 05:23:22;;;;;;;;;;;;;;;7.82;100.00;99763.84;5049971;28;20303;-58
2022/09/27 05:25:48;;;;;;;;;;;;;;;7.83;100.00;99760.22;5045837;28;19917;-58
2022/09/27 05:28:13;;;;;;;;;;;;;;;7.83;100.00;99753.09;5053544;28;19913;-58
2022/09/27 05:30:38;;;;;;;;;;;;;;;7.88;100.00;99771.06;5048632;28;20566;-58
2022/09/27 05:33:03;;;;;;;;;;;;;;;7.87;100.00;99759.66;5053154;28;19913;-58
2022/09/27 05:35:28;;;;;;;;;;;;;;;7.86;100.00;99758.03;5047239;28;19951;-58
2022/09/27 05:37:55;;;;;;;;;;;;;;;7.86;100.00;99760.66;5049226;28;20007;-57
2022/09/27 05:40:23;;;;;;;;;;;;;;;7.85;100.00;99766.13;5043866;28;19917;-58
2022/09/27 05:42:49;;;;;;;;;;;;;;;7.83;100.00;99768.13;5048026;28;19917;-58
2022/09/27 05:45:15;;;;;;;;;;;;;;;7.82;100.00;99763.84;5048689;28;19923;-57
2022/09/27 05:47:40;;;;;;;;;;;;;;;7.83;100.00;99754.91;5050773;28;19968;-58
2022/09/27 05:50:07;;;;;;;;;;;;;;;7.82;100.00;99745.34;5050696;28;19916;-58
2022/09/27 05:52:32;;;;;;;;;;;;;;;7.81;100.00;99747.19;5043148;28;19924;-57
2022/09/27 05:54:58;;;;;;;;;;;;;;;7.81;100.00;99747.19;5051275;28;19917;-58
2022/09/27 05:57:23;;;;;;;;;;;;;;;7.83;100.00;99752.28;5047729;28;19963;-57
2022/09/27 05:59:48;;;;;;;;;;;;;;;7.83;100.00;99754.91;5047029;28;20014;-58
2022/09/27 06:02:14;;;;;;;;;;;;;;;7.84;100.00;99762.66;5046099;28;20411;-57
2022/09/27 06:04:39;;;;;;;;;;;;;;;7.84;100.00;99757.38;5043876;28;19964;-58
2022/09/27 06:07:04;;;;;;;;;;;;;;;7.84;100.00;99765.31;5047508;28;19927;-59
2022/09/27 06:09:29;;;;;;;;;;;;;;;7.87;100.00;99777.34;5045314;28;19920;-58
2022/09/27 06:11:55;;;;;;;;;;;;;;;7.90;100.00;99787.56;5042472;28;19921;-58
2022/09/27 06:14:21;;;;;;;;;;;;;;;7.98;100.00;99792.75;5043652;28;19924;-59
2022/09/27 06:16:46;;;;;;;;;;;;;;;7.95;100.00;99783.38;5049986;28;19917;-59
2022/09/27 06:19:12;;;;;;;;;;;;;;;7.97;100.00;99783.19;5045446;28;20364;-58
2022/09/27 06:21:37;;;;;;;;;;;;;;;7.95;100.00;99786.00;5036848;28;19928;-59
2022/09/27 06:24:02;;;;;;;;;;;;;;;7.96;100.00;99792.13;5046582;28;20537;-59
2022/09/27 06:26:28;;;;;;;;;;;;;;;7.93;100.00;99779.28;5043464;28;19917;-58
2022/09/27 06:28:53;;;;;;;;;;;;;;;7.92;100.00;99780.28;5043338;28;21269;-58
2022/09/27 06:31:18;;;;;;;;;;;;;;;7.94;100.00;99788.84;5048698;28;20438;-59
2022/09/27 06:33:44;;;;;;;;;;;;;;;7.89;100.00;99780.63;5047476;28;19973;-59
2022/09/27 06:36:10;;;;;;;;;;;;;;;7.88;100.00;99786.91;5047608;28;19920;-59
2022/09/27 06:38:35;;;;;;;;;;;;;;;7.92;100.00;99785.56;5039168;28;19964;-59
2022/09/27 06:41:01;;;;;;;;;;;;;;;7.91;100.00;99789.19;5044084;28;20054;-58
2022/09/27 06:43:26;;;;;;;;;;;;;;;7.89;100.00;99773.53;5045839;28;20391;-59
2022/09/27 06:45:51;;;;;;;;;;;;;;;7.88;100.00;99774.53;5049190;28;19923;-58
2022/09/27 06:48:17;;;;;;;;;;;;;;;7.87;100.00;99774.69;5044070;28;19928;-58
2022/09/27 06:50:43;;;;;;;;;;;;;;;7.87;100.00;99775.53;5042013;28;19971;-57
2022/09/27 06:53:11;;;;;;;;;;;;;;;7.86;100.00;99771.25;5044870;28;20495;-59
2022/09/27 06:55:37;;;;;;;;;;;;;;;7.88;100.00;99776.34;5049190;28;19913;-58
2022/09/27 07:00:51;;;;;;;;;;;;;;;7.89;100.00;99778.00;5044285;28;20529;-58
2022/09/27 07:03:17;;;;;;;;;;;;;;;7.87;100.00;99780.00;5039509;28;19920;-59
2022/09/27 07:05:42;;;;;;;;;;;;;;;7.88;100.00;99786.91;5049292;28;19913;-59
2022/09/27 07:08:13;;;;;;;;;;;;;;;7.90;100.00;99780.44;5048579;28;19958;-59
2022/09/27 07:10:39;;;;;;;;;;;;;;;7.94;100.00;99786.19;5043060;28;20284;-59
2022/09/27 07:13:08;;;;;;;;;;;;;;;7.97;100.00;99783.19;5045938;28;19935;-58
2022/09/27 07:15:36;;;;;;;;;;;;;;;8.00;100.00;99790.75;5038452;28;19916;-59
2022/09/27 07:18:02;;;;;;;;;;;;;;;8.02;100.00;99792.22;5042189;28;19917;-58
2022/09/27 07:20:30;;;;;;;;;;;;;;;8.04;100.00;99806.09;5047945;28;19914;-59
2022/09/27 07:22:56;;;;;;;;;;;;;;;8.08;100.00;99801.25;5047872;28;20327;-58
2022/09/27 07:25:21;;;;;;;;;;;;;;;8.11;100.00;99805.38;5042986;28;19921;-58
2022/09/27 07:27:47;;;;;;;;;;;;;;;8.10;100.00;99807.22;5045533;28;20384;-59
2022/09/27 07:30:13;;;;;;;;;;;;;;;8.14;100.00;99807.66;5042936;28;19916;-58
2022/09/27 07:32:38;;;;;;;;;;;;;;;8.19;100.00;99818.53;5049076;28;19917;-59
2022/09/27 07:35:04;;;;;;;;;;;;;;;8.20;100.00;99813.06;5044070;28;19920;-59
2022/09/27 07:37:31;;;;;;;;;;;;;;;8.24;100.00;99816.97;5047890;28;19995;-58
2022/09/27 07:39:56;;;;;;;;;;;;;;;8.26;100.00;99817.63;5044603;28;19920;-58
2022/09/27 07:42:21;;;;;;;;;;;;;;;8.30;100.00;99812.78;5039181;28;19924;-59
2022/09/27 07:44:47;;;;;;;;;;;;;;;8.32;100.00;99816.06;5039293;28;19924;-58
2022/09/27 07:47:12;;;;;;;;;;;;;;;8.32;100.00;99816.88;5039595;28;20022;-58
2022/09/27 07:49:37;;;;;;;;;;;;;;;8.36;100.00;99810.25;5044992;28;19917;-58
2022/09/27 07:52:02;;;;;;;;;;;;;;;8.40;100.00;99817.84;5045369;28;20017;-59
2022/09/27 07:54:28;;;;;;;;;;;;;;;8.42;100.00;99815.84;5043489;28;19913;-58
2022/09/27 07:56:54;;;;;;;;;;;;;;;8.42;100.00;99821.97;5047947;28;19919;-58
2022/09/27 07:59:19;;;;;;;;;;;;;;;8.45;100.00;99823.41;5048754;28;19919;-58
2022/09/27 08:01:45;;;;;;;;;;;;;;;8.48;100.00;99825.69;5042823;28;19925;-59
2022/09/27 08:04:10;;;;;;;;;;;;;;;8.50;100.00;99821.88;5050136;28;19919;-58
2022/09/27 08:06:35;;;;;;;;;;;;;;;8.53;100.00;99815.38;5051659;28;19963;-59
2022/09/27 08:09:04;;;;;;;;;;;;;;;8.54;100.00;99824.97;5052513;28;19913;-58
2022/09/27 08:11:29;;;;;;;;;;;;;;;8.57;100.00;99819.31;5046896;28;20360;-58
2022/09/27 08:13:55;;;;;;;;;;;;;;;8.59;100.00;99825.22;5047626;28;19925;-58
2022/09/27 08:16:21;;;;;;;;;;;;;;;8.61;100.00;99825.88;5049023;28;19959;-58
2022/09/27 08:18:46;;;;;;;;;;;;;;;8.63;100.00;99824.69;5047914;28;19964;-59
2022/09/27 08:21:11;;;;;;;;;;;;;;;8.67;100.00;99825.13;5042873;28;19952;-59
2022/09/27 08:23:36;;;;;;;;;;;;;;;8.71;100.00;99830.91;5046144;28;19966;-59
2022/09/27 08:26:02;;;;;;;;;;;;;;;8.74;100.00;99831.38;5049390;28;19913;-59
2022/09/27 08:28:27;;;;;;;;;;;;;;;8.77;100.00;99824.88;5050275;28;19913;-59
2022/09/27 08:30:52;;;;;;;;;;;;;;;8.80;100.00;99837.75;5049349;28;19924;-59
2022/09/27 08:33:18;;;;;;;;;;;;;;;8.83;100.00;99845.31;5050362;28;20288;-59
2022/09/27 08:35:43;;;;;;;;;;;;;;;8.82;100.00;99841.84;5046579;28;19962;-58
2022/09/27 08:38:08;;;;;;;;;;;;;;;8.91;100.00;99856.63;5046177;28;19928;-58
2022/09/27 08:40:53;;;;;;;;;;;;;;;8.85;100.00;99849.41;5041691;28;19917;-58
2022/09/27 08:43:36;;;;;;;;;;;;;;;8.87;100.00;99849.22;5053336;28;19920;-59
2022/09/27 08:46:23;;;;;;;;;;;;;;;8.85;100.00;99849.41;5046221;28;19924;-59
2022/09/27 08:48:49;;;;;;;;;;;;;;;8.85;100.00;99854.72;5046826;28;19948;-58
2022/09/27 08:51:15;;;;;;;;;;;;;;;8.86;100.00;99851.06;5048024;28;19982;-58
2022/09/27 08:53:51;;;;;;;;;;;;;;;8.87;100.00;99854.53;5051332;28;20495;-59
2022/09/27 08:56:20;;;;;;;;;;;;;;;8.85;100.00;99864.47;5051050;28;19944;-59
2022/09/27 08:58:48;;;;;;;;;;;;;;;8.83;100.00;99863.84;5045071;28;19970;-59
2022/09/27 09:01:14;;;;;;;;;;;;;;;8.81;100.00;99866.69;5046739;28;19924;-57
2022/09/27 09:03:47;;;;;;;;;;;;;;;8.81;100.00;99861.38;5050684;28;19920;-58
2022/09/27 09:06:21;;;;;;;;;;;;;;;8.80;100.00;99866.88;5048374;28;19923;-59
2022/09/27 09:08:58;;;;;;;;;;;;;;;8.72;100.00;99853.72;5045967;28;19924;-58
2022/09/27 09:14:44;;;;;;;;;;;;;;;8.79;100.00;99875.81;5044081;28;19932;-58
2022/09/27 09:17:29;;;;;;;;;;;;;;;8.76;100.00;99876.19;5046204;28;20004;-58
2022/09/27 09:20:11;;;;;;;;;;;;;;;8.75;100.00;99882.47;5043829;28;19913;-58
2022/09/27 09:22:52;;;;;;;;;;;;;;;8.75;100.00;99879.84;5044537;28;20386;-58
2022/09/27 09:25:35;;;;;;;;;;;;;;;8.75;100.00;99883.28;5050398;28;19921;-59
2022/09/27 09:28:03;;;;;;;;;;;;;;;8.78;100.00;99879.47;5044698;28;20380;-58
2022/09/27 09:30:47;;;;;;;;;;;;;;;8.77;100.00;99875.16;5045995;28;19921;-58
2022/09/27 09:33:15;;;;;;;;;;;;;;;8.76;100.00;99881.47;5042778;28;20012;-59
2022/09/27 09:35:50;;;;;;;;;;;;;;;8.74;100.00;99876.34;5039681;28;19924;-58
2022/09/27 09:38:22;;;;;;;;;;;;;;;8.71;100.00;99884.66;5053824;28;20403;-58
2022/09/27 09:40:51;;;;;;;;;;;;;;;8.65;100.00;99880.91;5051339;28;19921;-58
2022/09/27 09:43:34;;;;;;;;;;;;;;;8.50;100.00;99877.44;5043815;28;19972;-58
2022/09/27 09:46:04;;;;;;;;;;;;;;;8.31;99.96;99875.25;5045764;28;19917;-58
2022/09/27 09:48:48;;;;;;;;;;;;;;;8.29;99.82;99875.44;5043744;28;19924;-58
2022/09/27 09:51:20;;;;;;;;;;;;;;;8.21;99.67;99878.16;5044990;28;19960;-58
2022/09/27 09:53:49;;;;;;;;;;;;;;;8.20;99.73;99876.53;5048677;28;20419;-58
2022/09/27 09:56:20;;;;;;;;;;;;;;;8.16;99.16;99877.88;5051604;28;20521;-58
2022/09/27 09:58:52;;;;;;;;;;;;;;;8.15;99.42;99878.06;5046914;28;20379;-59
2022/09/27 10:01:19;;;;;;;;;;;;;;;8.18;99.42;99878.53;5047914;28;19963;-58
2022/09/27 10:03:45;;;;;;;;;;;;;;;8.23;99.39;99881.44;5047057;28;19925;-59
2022/09/27 10:06:11;;;;;;;;;;;;;;;8.33;99.75;99879.41;5041291;28;19924;-59
2022/09/27 10:08:36;;;;;;;;;;;;;;;8.46;100.00;99886.75;5047572;28;19920;-59
2022/09/27 10:11:01;;;;;;;;;;;;;;;8.56;100.00;99889.94;5047236;28;20300;-59
2022/09/27 10:13:29;;;;;;;;;;;;;;;8.64;100.00;99894.31;5046078;28;19917;-59
2022/09/27 10:16:03;;;;;;;;;;;;;;;8.62;100.00;99894.50;5046461;28;20350;-59
2022/09/27 10:18:28;;;;;;;;;;;;;;;8.51;100.00;99887.00;5041849;28;19917;-58
2022/09/27 10:21:00;;;;;;;;;;;;;;;8.54;100.00;99888.47;5049357;28;19912;-59
2022/09/27 10:23:25;;;;;;;;;;;;;;;8.59;100.00;99891.41;5037402;28;19943;-59
2022/09/27 10:25:54;;;;;;;;;;;;;;;8.67;100.00;99892.16;5039330;28;19921;-58
2022/09/27 10:28:36;;;;;;;;;;;;;;;8.70;99.62;99883.03;5041411;28;19982;-58
2022/09/27 10:31:05;;;;;;;;;;;;;;;8.68;99.57;99887.69;5040578;28;20312;-59
2022/09/27 10:33:31;;;;;;;;;;;;;;;8.66;99.45;99881.72;5048810;28;19920;-59
2022/09/27 10:35:56;;;;;;;;;;;;;;;8.62;99.38;99886.56;5044550;28;20304;-58
2022/09/27 10:38:23;;;;;;;;;;;;;;;8.62;98.92;99885.75;5045984;28;20299;-58
2022/09/27 10:40:49;;;;;;;;;;;;;;;8.60;98.51;99887.75;5037118;28;19920;-59
2022/09/27 10:43:29;;;;;;;;;;;;;;;8.55;98.58;99884.81;5040907;28;19924;-59
2022/09/27 10:46:06;;;;;;;;;;;;;;;8.57;98.72;99893.41;5042421;28;19967;-58
2022/09/27 10:48:31;;;;;;;;;;;;;;;8.59;98.55;99880.81;5045564;28;19928;-58
2022/09/27 10:51:01;;;;;;;;;;;;;;;8.59;98.44;99886.09;5044141;28;20291;-58
2022/09/27 10:53:28;;;;;;;;;;;;;;;8.54;98.36;99885.81;5041435;28;19925;-58
2022/09/27 10:55:53;;;;;;;;;;;;;;;8.58;98.67;99879.16;5041378;28;19917;-59
2022/09/27 10:58:44;;;;;;;;;;;;;;;8.59;98.51;99884.28;5049052;28;19917;-59
2022/09/27 11:01:11;;;;;;;;;;;;;;;8.65;98.78;99882.72;5042701;28;19920;-59
2022/09/27 11:03:44;;;;;;;;;;;;;;;8.69;98.73;99884.84;5042657;28;20012;-58
2022/09/27 11:06:19;;;;;;;;;;;;;;;8.70;98.40;99885.66;5045971;28;19917;-59
2022/09/27 11:08:47;;;;;;;;;;;;;;;8.76;98.48;99886.75;5039094;28;19938;-58
2022/09/27 11:11:12;;;;;;;;;;;;;;;8.80;97.95;99883.56;5045898;28;19923;-57
2022/09/27 11:13:38;;;;;;;;;;;;;;;8.83;97.75;99887.66;5045044;28;20007;-58
2022/09/27 11:16:39;;;;;;;;;;;;;;;8.88;97.60;99887.94;5043993;28;19917;-58
2022/09/27 11:19:19;;;;;;;;;;;;;;;8.89;97.51;99890.41;5002013;28;19944;-59
2022/09/27 11:21:54;;;;;;;;;;;;;;;8.88;97.22;99888.75;5036801;28;19960;-59
2022/09/27 11:24:35;;;;;;;;;;;;;;;8.91;97.05;99893.69;5040338;28;19955;-59
2022/09/27 11:27:08;;;;;;;;;;;;;;;8.97;96.90;99890.34;5047240;28;20560;-59
2022/09/27 11:29:44;;;;;;;;;;;;;;;9.03;97.28;99891.41;5051174;28;20403;-59
2022/09/27 11:32:20;;;;;;;;;;;;;;;9.10;97.03;99886.19;5043988;28;19965;-59
2022/09/27 11:35:04;;;;;;;;;;;;;;;9.00;96.97;99871.44;5047831;28;19927;-59
2022/09/27 11:37:36;;;;;;;;;;;;;;;9.06;96.38;99872.50;5041611;28;19917;-59
2022/09/27 11:40:20;;;;;;;;;;;;;;;9.09;96.64;99873.97;5042309;28;19917;-59
2022/09/27 11:43:04;;;;;;;;;;;;;;;9.12;96.64;99876.25;5051113;28;20302;-59
2022/09/27 11:45:32;;;;;;;;;;;;;;;9.11;96.54;99872.78;5039162;28;20547;-59
2022/09/27 11:48:13;;;;;;;;;;;;;;;9.15;96.25;99867.94;5046547;28;19913;-59
2022/09/27 11:50:57;;;;;;;;;;;;;;;9.16;96.20;99862.44;5047076;28;20012;-58
2022/09/27 11:53:45;;;;;;;;;;;;;;;9.20;96.08;99865.53;5046915;28;19913;-59
2022/09/27 11:56:18;;;;;;;;;;;;;;;9.30;96.46;99866.09;5028237;28;19913;-59
2022/09/27 11:58:58;;;;;;;;;;;;;;;9.39;96.23;99864.13;5042463;28;19939;-59
2022/09/27 12:01:29;;;;;;;;;;;;;;;9.49;96.30;99864.66;5045403;28;19940;-59
2022/09/27 12:04:03;;;;;;;;;;;;;;;9.59;96.08;99863.34;5042977;28;19920;-59
2022/09/27 12:06:47;;;;;;;;;;;;;;;9.67;95.35;99864.25;5048613;28;19970;-59
2022/09/27 12:09:14;;;;;;;;;;;;;;;9.77;95.46;99862.91;5046204;28;20348;-59
2022/09/27 12:11:50;;;;;;;;;;;;;;;9.82;95.30;99862.31;5045786;28;19928;-59
2022/09/27 12:14:19;;;;;;;;;;;;;;;9.81;94.47;99861.50;5041805;28;19913;-59
2022/09/27 12:16:44;;;;;;;;;;;;;;;9.81;94.27;99864.16;5047651;28;20019;-59
2022/09/27 12:19:14;;;;;;;;;;;;;;;9.79;94.09;99865.38;5049301;28;20354;-59
2022/09/27 12:21:41;;;;;;;;;;;;;;;9.80;93.93;99859.88;5037809;28;19920;-59
2022/09/27 12:24:13;;;;;;;;;;;;;;;9.83;94.32;99859.53;5040787;28;20035;-59
2022/09/27 12:26:40;;;;;;;;;;;;;;;9.90;94.33;99854.28;5046544;28;20054;-58
2022/09/27 12:29:08;;;;;;;;;;;;;;;9.94;94.15;99863.47;5044320;28;20387;-59
2022/09/27 12:31:36;;;;;;;;;;;;;;;9.88;92.82;99854.47;5046502;28;19932;-60
2022/09/27 12:34:05;;;;;;;;;;;;;;;9.79;92.24;99857.41;5048331;28;20273;-59
2022/09/27 12:36:34;;;;;;;;;;;;;;;9.77;91.72;99854.13;5047888;28;20003;-60
2022/09/27 12:39:31;;;;;;;;;;;;;;;9.78;92.13;99853.13;5043940;28;19960;-59
2022/09/27 12:42:01;;;;;;;;;;;;;;;9.78;91.67;99851.28;5024121;28;19920;-59
2022/09/27 12:44:27;;;;;;;;;;;;;;;9.86;92.13;99848.53;5046764;28;19931;-59
2022/09/27 12:47:03;;;;;;;;;;;;;;;9.99;92.05;99847.81;5052619;28;19913;-59
2022/09/27 12:49:32;;;;;;;;;;;;;;;10.07;92.13;99844.19;5052133;28;20510;-58
2022/09/27 12:51:59;;;;;;;;;;;;;;;10.10;91.39;99841.97;5047604;28;20296;-59
2022/09/27 12:54:42;;;;;;;;;;;;;;;10.09;90.67;99853.59;5048283;28;19959;-59
2022/09/27 12:57:17;;;;;;;;;;;;;;;10.09;90.60;99845.66;5049581;28;19937;-59
2022/09/27 13:00:03;;;;;;;;;;;;;;;10.14;91.06;99840.59;5051795;28;19913;-60
2022/09/27 13:02:37;;;;;;;;;;;;;;;10.20;90.69;99841.66;5049505;28;20265;-60
2022/09/27 13:05:27;;;;;;;;;;;;;;;10.21;90.32;99844.16;5051655;28;20434;-59
2022/09/27 13:07:52;;;;;;;;;;;;;;;10.19;90.53;99838.19;5050234;28;19912;-58
2022/09/27 13:10:37;;;;;;;;;;;;;;;10.12;88.74;99833.81;5047783;28;20410;-59